KAKQ/AKQ METAR and TAF weather

Enter ICAO airport designator
Station Type Date Time Source
KAKQ METAR 2019/02/20 23:22 UTC NOAA

KAKQ 202322Z AUTO 34003KT 2SM BR OVC003 06/05 A3018 RMK AO2 RAE2257 P0000 T00560050


Station Type Date Time Source
KAKQ Decoded METAR 2019/02/20 23:22 UTC NOAA

WAKEFIELD MUNICIPAL AIRPOR, VA, United States (KAKQ) 36-59N 077-00W 33M
Feb 20, 2019 - 06:22 PM EST / 2019.02.20 2322 UTC
Wind: from the NNW (340 degrees) at 3 MPH (3 KT):0
Visibility: 2 mile(s):0
Sky conditions: overcast
Weather: mist
Precipitation last hour: A trace
Temperature: 42.1 F (5.6 C)
Dew Point: 41.0 F (5.0 C)
Relative Humidity: 95%
Pressure (altimeter): 30.18 in. Hg (1022 hPa)
ob: KAKQ 202322Z AUTO 34003KT 2SM BR OVC003 06/05 A3018 RMK AO2 RAE2257 P0000 T00560050
cycle: 23

Station Type Date Time Source
KAKQ TAF UTC NOAA

Error!


Example: see airport list